Decoded Metar for LFOJ (ORLEANS in FRANCE) (IATA:ORE) | Meteo·Mobile Aviation Weather
aviador You're here:

LFOJ Decoded Metar

ORLEANS in FRANCE
Report Time2019-07-22 15:30:00
UTC Time2019-07-22 16:03:58
Flight Rules vfr VFR
WindVRB at 03 kt
Visibility9999 m
Phenomena:N/A
Clouds:N/A
Expected CloudBase > 8,000 ft AGL from Temp-Dew spread
CeilingNone
Temp32°C (ISA +18)
Dew Point12°C (29% RH)
Heat Index30.7°C
AAT31.5°C
QNH1021 hPa
Density Alt2,365 ft
Elevation410 ft
Report Wrong Elevation
Raw Report
LFOJ 221530Z AUTO VRB03KT CAVOK 32/12 Q1021 NOSIG=

Extra information for LFOJ:More info

Metar Taf Metar & Taf Last 4 Metars F.Rules Stats Wind Profile Meteogram Temp Stats Airport Information Weather charts Add Link Nearby VenuesMetar ALERT Operation Metar Decoded Social comments